RYR84QL EDDK-LMML
Flight info
| Callsign | RYR84QL |
|---|---|
| Flight time | N/A |
| Altitude | 34000 |
| Route | KUMIK8F KUMIK Y854 BOMBI DCT GIGET DCT ABUKA/N0444F350 L607 TEDGO DCT BATUB DCT TIRUL M738 NATAG DCT LORLO DCT UNTAD DCT NEGIK DCT ADOSA DCT MARON/N0354F190 L12 GZO |
| Aircraft | B738/M-SDE2E3FGHIRWXY/LB1 |
Departure
| Time | 2026-05-01 13:37 |
|---|---|
| Airport | Cologne Bonn Airport (EDDK) |
Arrival
| Time | N/A |
|---|---|
| Airport | Malta International Airport (LMML) |
| Time | Latitude | Longitude | Altitude | Speed | Heading |
|---|---|---|---|---|---|
| 2026-05-01 13:10 | 50.87686 | 7.12190 | 241 ft | 0 kts | 51° |
| 2026-05-01 13:27 | 50.87677 | 7.12172 | 240 ft | 2 kts | 51° |
| 2026-05-01 13:28 | 50.87659 | 7.12136 | 240 ft | 2 kts | 51° |
| 2026-05-01 13:28 | 50.87650 | 7.12118 | 240 ft | 2 kts | 51° |
| 2026-05-01 13:29 | 50.87635 | 7.12089 | 240 ft | 1 kts | 89° |
| 2026-05-01 13:29 | 50.87629 | 7.12107 | 240 ft | 6 kts | 118° |
| 2026-05-01 13:30 | 50.87599 | 7.12194 | 240 ft | 0 kts | 118° |
| 2026-05-01 13:32 | 50.87564 | 7.12294 | 240 ft | 9 kts | 119° |
| 2026-05-01 13:33 | 50.87610 | 7.12472 | 240 ft | 9 kts | 19° |
| 2026-05-01 13:33 | 50.87722 | 7.12530 | 240 ft | 7 kts | 18° |
| 2026-05-01 13:34 | 50.87774 | 7.12666 | 240 ft | 10 kts | 75° |
| 2026-05-01 13:34 | 50.87808 | 7.12887 | 239 ft | 12 kts | 75° |
| 2026-05-01 13:35 | 50.87826 | 7.13002 | 237 ft | 0 kts | 73° |
| 2026-05-01 13:35 | 50.87826 | 7.13003 | 237 ft | 0 kts | 73° |
| 2026-05-01 13:35 | 50.87855 | 7.13159 | 238 ft | 10 kts | 76° |
| 2026-05-01 13:36 | 50.87827 | 7.13230 | 240 ft | 4 kts | 136° |
| 2026-05-01 13:36 | 50.87825 | 7.13234 | 240 ft | 0 kts | 137° |
| 2026-05-01 13:36 | 50.87824 | 7.13235 | 240 ft | 1 kts | 137° |
| 2026-05-01 13:37 | 50.87739 | 7.13358 | 241 ft | 46 kts | 137° |
| 2026-05-01 13:37 | 50.87501 | 7.13706 | 243 ft | 91 kts | 137° |
| 2026-05-01 13:37 | 50.86612 | 7.14993 | 283 ft | 164 kts | 136° |
| 2026-05-01 13:37 | 50.85770 | 7.16178 | 959 ft | 162 kts | 140° |
| 2026-05-01 13:38 | 50.84060 | 7.18531 | 2198 ft | 171 kts | 138° |
| 2026-05-01 13:38 | 50.83143 | 7.19838 | 2570 ft | 186 kts | 136° |
| 2026-05-01 13:38 | 50.82187 | 7.21351 | 2917 ft | 203 kts | 130° |
| 2026-05-01 13:39 | 50.81445 | 7.23300 | 3347 ft | 217 kts | 111° |
| 2026-05-01 13:39 | 50.81132 | 7.25673 | 3905 ft | 227 kts | 98° |
| 2026-05-01 13:39 | 50.81003 | 7.28203 | 4434 ft | 237 kts | 97° |
| 2026-05-01 13:39 | 50.80824 | 7.30852 | 4935 ft | 249 kts | 99° |
| 2026-05-01 13:40 | 50.80588 | 7.33629 | 5424 ft | 261 kts | 100° |
| 2026-05-01 13:40 | 50.80332 | 7.36462 | 6110 ft | 265 kts | 100° |
| 2026-05-01 13:40 | 50.80074 | 7.39327 | 6804 ft | 267 kts | 100° |
| 2026-05-01 13:40 | 50.79817 | 7.42220 | 7520 ft | 269 kts | 100° |
| 2026-05-01 13:41 | 50.79561 | 7.45126 | 8225 ft | 271 kts | 99° |
| 2026-05-01 13:41 | 50.79305 | 7.48051 | 8898 ft | 273 kts | 99° |
| 2026-05-01 13:41 | 50.79046 | 7.51017 | 9571 ft | 275 kts | 99° |
| 2026-05-01 13:41 | 50.78787 | 7.53992 | 10249 ft | 277 kts | 99° |
| 2026-05-01 13:42 | 50.78520 | 7.57050 | 10707 ft | 287 kts | 99° |
| 2026-05-01 13:42 | 50.78415 | 7.60253 | 11022 ft | 304 kts | 88° |
| 2026-05-01 13:42 | 50.78693 | 7.63630 | 11473 ft | 315 kts | 81° |
| 2026-05-01 13:42 | 50.79103 | 7.67015 | 12158 ft | 317 kts | 81° |
| 2026-05-01 13:43 | 50.79536 | 7.70428 | 12816 ft | 320 kts | 81° |
| 2026-05-01 13:43 | 50.79958 | 7.73877 | 13442 ft | 323 kts | 81° |
| 2026-05-01 13:43 | 50.80366 | 7.77380 | 14111 ft | 326 kts | 81° |
| 2026-05-01 13:43 | 50.80762 | 7.80894 | 14754 ft | 329 kts | 82° |
| 2026-05-01 13:44 | 50.81162 | 7.84499 | 15405 ft | 332 kts | 82° |
| 2026-05-01 13:44 | 50.81557 | 7.88093 | 16052 ft | 335 kts | 81° |
| 2026-05-01 13:44 | 50.81950 | 7.91676 | 16667 ft | 338 kts | 81° |
| 2026-05-01 13:44 | 50.82220 | 7.94133 | 17076 ft | 341 kts | 81° |
| 2026-05-01 13:45 | 50.82355 | 7.95373 | 17268 ft | 342 kts | 81° |
| 2026-05-01 13:45 | 50.81652 | 8.06385 | 18996 ft | 349 kts | 117° |
| 2026-05-01 13:45 | 50.80331 | 8.09602 | 19551 ft | 352 kts | 127° |
| 2026-05-01 13:46 | 50.78661 | 8.12465 | 20060 ft | 357 kts | 137° |
| 2026-05-01 13:46 | 50.76685 | 8.14849 | 20566 ft | 362 kts | 144° |
| 2026-05-01 13:46 | 50.74572 | 8.16984 | 21072 ft | 366 kts | 147° |
| 2026-05-01 13:46 | 50.72372 | 8.19082 | 21563 ft | 369 kts | 147° |
| 2026-05-01 13:47 | 50.70182 | 8.21164 | 22047 ft | 373 kts | 147° |
| 2026-05-01 13:47 | 50.67955 | 8.23304 | 22531 ft | 376 kts | 147° |
| 2026-05-01 13:47 | 50.65725 | 8.25474 | 22985 ft | 380 kts | 146° |
| 2026-05-01 13:47 | 50.63489 | 8.27673 | 23437 ft | 383 kts | 146° |
| 2026-05-01 13:48 | 50.61237 | 8.29902 | 23891 ft | 386 kts | 146° |
| 2026-05-01 13:48 | 50.58969 | 8.32156 | 24346 ft | 389 kts | 146° |
| 2026-05-01 13:48 | 50.56689 | 8.34426 | 24792 ft | 391 kts | 146° |
| 2026-05-01 13:48 | 50.54367 | 8.36738 | 25224 ft | 394 kts | 146° |
| 2026-05-01 13:49 | 50.52047 | 8.39047 | 25633 ft | 397 kts | 146° |
| 2026-05-01 13:49 | 50.49721 | 8.41360 | 26035 ft | 400 kts | 146° |
| 2026-05-01 13:49 | 50.47383 | 8.43684 | 26413 ft | 403 kts | 146° |
| 2026-05-01 13:49 | 50.44990 | 8.46059 | 26794 ft | 406 kts | 146° |
| 2026-05-01 13:50 | 50.42596 | 8.48432 | 27177 ft | 408 kts | 146° |
| 2026-05-01 13:50 | 50.40172 | 8.50832 | 27533 ft | 411 kts | 146° |
| 2026-05-01 13:50 | 50.37764 | 8.53211 | 27895 ft | 414 kts | 146° |
| 2026-05-01 13:50 | 50.35294 | 8.55513 | 28230 ft | 417 kts | 148° |
| 2026-05-01 13:51 | 50.32760 | 8.57691 | 28577 ft | 419 kts | 150° |
| 2026-05-01 13:51 | 50.30165 | 8.59836 | 28908 ft | 422 kts | 150° |
| 2026-05-01 13:51 | 50.27572 | 8.61953 | 29264 ft | 424 kts | 150° |
| 2026-05-01 13:51 | 50.24962 | 8.64081 | 29588 ft | 426 kts | 150° |
| 2026-05-01 13:52 | 50.22339 | 8.66229 | 29914 ft | 428 kts | 151° |
| 2026-05-01 13:52 | 50.19701 | 8.68397 | 30194 ft | 431 kts | 151° |
| 2026-05-01 13:52 | 50.17044 | 8.70590 | 30509 ft | 434 kts | 151° |
| 2026-05-01 13:52 | 50.14378 | 8.72794 | 30747 ft | 437 kts | 151° |
| 2026-05-01 13:53 | 50.11676 | 8.75028 | 31077 ft | 438 kts | 152° |
| 2026-05-01 13:53 | 50.06041 | 8.78702 | 31638 ft | 444 kts | 163° |
| 2026-05-01 13:53 | 50.03067 | 8.79811 | 31928 ft | 446 kts | 169° |
| 2026-05-01 13:54 | 49.99979 | 8.80409 | 32231 ft | 448 kts | 176° |
| 2026-05-01 13:54 | 49.96874 | 8.80471 | 32536 ft | 449 kts | 182° |
| 2026-05-01 13:54 | 49.93786 | 8.80008 | 32780 ft | 451 kts | 189° |
| 2026-05-01 13:54 | 49.90684 | 8.79099 | 33039 ft | 453 kts | 192° |
| 2026-05-01 13:55 | 49.87620 | 8.78031 | 33417 ft | 452 kts | 193° |
| 2026-05-01 13:55 | 49.84577 | 8.76926 | 33853 ft | 449 kts | 193° |
| 2026-05-01 13:55 | 49.81562 | 8.75885 | 34198 ft | 448 kts | 192° |
| 2026-05-01 13:55 | 49.78490 | 8.74923 | 34280 ft | 451 kts | 191° |
| 2026-05-01 13:56 | 49.72305 | 8.73277 | 34286 ft | 448 kts | 189° |
| 2026-05-01 13:56 | 49.66184 | 8.71896 | 34295 ft | 447 kts | 188° |
| 2026-05-01 13:57 | 49.61027 | 8.70826 | 34295 ft | 448 kts | 188° |
| 2026-05-01 13:57 | 49.53839 | 8.69378 | 34293 ft | 448 kts | 187° |
| 2026-05-01 13:58 | 49.47679 | 8.68728 | 34297 ft | 447 kts | 176° |
| 2026-05-01 13:58 | 49.44595 | 8.69519 | 34296 ft | 448 kts | 164° |
| 2026-05-01 13:58 | 49.41663 | 8.71090 | 34296 ft | 447 kts | 158° |
| 2026-05-01 13:59 | 49.35964 | 8.74923 | 34289 ft | 447 kts | 155° |
| 2026-05-01 13:59 | 49.30363 | 8.78937 | 34286 ft | 448 kts | 154° |
| 2026-05-01 14:00 | 49.24693 | 8.82971 | 34278 ft | 447 kts | 155° |
| 2026-05-01 14:00 | 49.19080 | 8.86900 | 34274 ft | 448 kts | 155° |
| 2026-05-01 14:01 | 49.13426 | 8.90815 | 34275 ft | 447 kts | 155° |
| 2026-05-01 14:01 | 49.07746 | 8.94724 | 34274 ft | 447 kts | 155° |
| 2026-05-01 14:02 | 49.02098 | 8.98596 | 34278 ft | 447 kts | 155° |
| 2026-05-01 14:02 | 48.96434 | 9.02467 | 34277 ft | 449 kts | 155° |
| 2026-05-01 14:03 | 48.90720 | 9.06362 | 34275 ft | 448 kts | 155° |
| 2026-05-01 14:03 | 48.85100 | 9.10183 | 34278 ft | 448 kts | 155° |
| 2026-05-01 14:04 | 48.79435 | 9.14025 | 34282 ft | 448 kts | 155° |
| 2026-05-01 14:04 | 48.74705 | 9.17226 | 34287 ft | 448 kts | 155° |
| 2026-05-01 14:05 | 48.68074 | 9.21702 | 34286 ft | 448 kts | 155° |
| 2026-05-01 14:05 | 48.62369 | 9.25544 | 34289 ft | 448 kts | 155° |
| 2026-05-01 14:06 | 48.56582 | 9.28934 | 34282 ft | 449 kts | 159° |
| 2026-05-01 14:06 | 48.50651 | 9.31902 | 34274 ft | 450 kts | 160° |
| 2026-05-01 14:07 | 48.44707 | 9.34826 | 34274 ft | 450 kts | 160° |
| 2026-05-01 14:08 | 48.35804 | 9.39272 | 34270 ft | 451 kts | 160° |
| 2026-05-01 14:08 | 48.29907 | 9.42248 | 34271 ft | 450 kts | 160° |
| 2026-05-01 14:09 | 48.23991 | 9.45240 | 34275 ft | 450 kts | 160° |
| 2026-05-01 14:09 | 48.18037 | 9.48250 | 34273 ft | 450 kts | 159° |
| 2026-05-01 14:10 | 48.12111 | 9.51240 | 34271 ft | 451 kts | 159° |
| 2026-05-01 14:10 | 48.06189 | 9.54236 | 34270 ft | 451 kts | 159° |
| 2026-05-01 14:11 | 48.00473 | 9.57990 | 34273 ft | 450 kts | 149° |
| 2026-05-01 14:11 | 47.92654 | 9.65517 | 34273 ft | 447 kts | 143° |
| 2026-05-01 14:12 | 47.87545 | 9.70861 | 34279 ft | 448 kts | 143° |
| 2026-05-01 14:12 | 47.82466 | 9.76137 | 34284 ft | 448 kts | 143° |
| 2026-05-01 14:13 | 47.78217 | 9.80498 | 34283 ft | 448 kts | 143° |
| 2026-05-01 14:13 | 47.72224 | 9.86595 | 34287 ft | 449 kts | 143° |
| 2026-05-01 14:14 | 47.67068 | 9.91812 | 34285 ft | 449 kts | 143° |
| 2026-05-01 14:14 | 47.61910 | 9.97012 | 34296 ft | 450 kts | 143° |
| 2026-05-01 14:15 | 47.56731 | 10.02219 | 34302 ft | 449 kts | 143° |
| 2026-05-01 14:15 | 47.51586 | 10.07378 | 34309 ft | 449 kts | 143° |
| 2026-05-01 14:16 | 47.46426 | 10.12541 | 34320 ft | 449 kts | 143° |
| 2026-05-01 14:16 | 47.41252 | 10.17707 | 34326 ft | 451 kts | 143° |
| 2026-05-01 14:17 | 47.36058 | 10.22878 | 34329 ft | 451 kts | 143° |
| 2026-05-01 14:17 | 47.30857 | 10.28043 | 34344 ft | 450 kts | 143° |
| 2026-05-01 14:18 | 47.25691 | 10.33160 | 34357 ft | 450 kts | 143° |
| 2026-05-01 14:18 | 47.21342 | 10.37461 | 34362 ft | 450 kts | 143° |
| 2026-05-01 14:19 | 47.15319 | 10.43402 | 34362 ft | 450 kts | 143° |
| 2026-05-01 14:19 | 47.10113 | 10.48518 | 34370 ft | 452 kts | 143° |
| 2026-05-01 14:20 | 47.01755 | 10.54887 | 34371 ft | 456 kts | 157° |
| 2026-05-01 14:21 | 46.95746 | 10.57721 | 34373 ft | 457 kts | 160° |
| 2026-05-01 14:21 | 46.89629 | 10.60351 | 34367 ft | 458 kts | 160° |
| 2026-05-01 14:22 | 46.80483 | 10.64320 | 34362 ft | 458 kts | 160° |
| 2026-05-01 14:22 | 46.74393 | 10.67011 | 34352 ft | 459 kts | 160° |
| 2026-05-01 14:23 | 46.68255 | 10.69536 | 34339 ft | 460 kts | 164° |
| 2026-05-01 14:23 | 46.62004 | 10.71562 | 34340 ft | 461 kts | 166° |
| 2026-05-01 14:24 | 46.55760 | 10.73479 | 34337 ft | 461 kts | 166° |
| 2026-05-01 14:24 | 46.49501 | 10.75432 | 34335 ft | 460 kts | 165° |
| 2026-05-01 14:25 | 46.43258 | 10.77419 | 34329 ft | 461 kts | 165° |
| 2026-05-01 14:25 | 46.37014 | 10.79425 | 34324 ft | 460 kts | 165° |
| 2026-05-01 14:26 | 46.27616 | 10.82454 | 34303 ft | 461 kts | 165° |
| 2026-05-01 14:27 | 46.21367 | 10.84467 | 34295 ft | 461 kts | 165° |
| 2026-05-01 14:27 | 46.15140 | 10.86473 | 34291 ft | 461 kts | 165° |
| 2026-05-01 14:28 | 46.05763 | 10.89481 | 34287 ft | 460 kts | 165° |
| 2026-05-01 14:28 | 45.99522 | 10.91481 | 34290 ft | 461 kts | 164° |
| 2026-05-01 14:29 | 45.93256 | 10.93482 | 34293 ft | 461 kts | 164° |
| 2026-05-01 14:30 | 45.80850 | 10.97429 | 34293 ft | 464 kts | 165° |
| 2026-05-01 14:31 | 45.71434 | 11.00413 | 34298 ft | 463 kts | 164° |
| 2026-05-01 14:31 | 45.65187 | 11.02391 | 34307 ft | 463 kts | 164° |
| 2026-05-01 14:32 | 45.58934 | 11.04470 | 34304 ft | 463 kts | 163° |
| 2026-05-01 14:32 | 45.52685 | 11.06697 | 34302 ft | 464 kts | 162° |
| 2026-05-01 14:33 | 45.46411 | 11.08946 | 34308 ft | 463 kts | 162° |
| 2026-05-01 14:33 | 45.40158 | 11.11170 | 34316 ft | 464 kts | 163° |
| 2026-05-01 14:34 | 45.33925 | 11.13368 | 34312 ft | 463 kts | 162° |
| 2026-05-01 14:34 | 45.27658 | 11.15569 | 34315 ft | 466 kts | 162° |
| 2026-05-01 14:35 | 45.21373 | 11.17766 | 34305 ft | 465 kts | 162° |
| 2026-05-01 14:35 | 45.15119 | 11.19941 | 34309 ft | 465 kts | 162° |
| 2026-05-01 14:36 | 45.08834 | 11.22124 | 34308 ft | 464 kts | 162° |
| 2026-05-01 14:36 | 45.02554 | 11.24304 | 34316 ft | 467 kts | 162° |
| 2026-05-01 14:37 | 44.96262 | 11.26483 | 34318 ft | 467 kts | 162° |
| 2026-05-01 14:37 | 44.89981 | 11.28651 | 34323 ft | 466 kts | 162° |
| 2026-05-01 14:38 | 44.83643 | 11.30835 | 34317 ft | 468 kts | 162° |
| 2026-05-01 14:38 | 44.77352 | 11.33000 | 34319 ft | 466 kts | 162° |
| 2026-05-01 14:39 | 44.71018 | 11.35174 | 34315 ft | 469 kts | 162° |
| 2026-05-01 14:39 | 44.64725 | 11.37326 | 34321 ft | 469 kts | 162° |
| 2026-05-01 14:40 | 44.58397 | 11.39485 | 34318 ft | 470 kts | 162° |
| 2026-05-01 14:40 | 44.52031 | 11.41652 | 34316 ft | 469 kts | 162° |
| 2026-05-01 14:41 | 44.45726 | 11.43793 | 34313 ft | 469 kts | 162° |
| 2026-05-01 14:41 | 44.39386 | 11.45949 | 34316 ft | 470 kts | 162° |
| 2026-05-01 14:42 | 44.33051 | 11.48093 | 34304 ft | 469 kts | 162° |
| 2026-05-01 14:42 | 44.26682 | 11.50240 | 34300 ft | 470 kts | 162° |
| 2026-05-01 14:43 | 44.20340 | 11.52374 | 34296 ft | 471 kts | 162° |
| 2026-05-01 14:43 | 44.13981 | 11.54510 | 34297 ft | 471 kts | 162° |
| 2026-05-01 14:44 | 44.07601 | 11.56650 | 34283 ft | 473 kts | 162° |
| 2026-05-01 14:44 | 43.98055 | 11.59839 | 34286 ft | 471 kts | 162° |
| 2026-05-01 14:45 | 43.88459 | 11.63040 | 34280 ft | 474 kts | 162° |
| 2026-05-01 14:46 | 43.82040 | 11.65171 | 34287 ft | 476 kts | 162° |
| 2026-05-01 14:46 | 43.72382 | 11.68372 | 34276 ft | 478 kts | 162° |
| 2026-05-01 14:47 | 43.65928 | 11.70505 | 34279 ft | 478 kts | 162° |
| 2026-05-01 14:48 | 43.56188 | 11.73718 | 34279 ft | 481 kts | 162° |
| 2026-05-01 14:48 | 43.46448 | 11.76916 | 34272 ft | 480 kts | 162° |
| 2026-05-01 14:49 | 43.33410 | 11.81195 | 34266 ft | 485 kts | 162° |
| 2026-05-01 14:50 | 43.20268 | 11.85467 | 34252 ft | 486 kts | 162° |
| 2026-05-01 14:51 | 43.10383 | 11.88679 | 34245 ft | 491 kts | 162° |
| 2026-05-01 14:52 | 43.00384 | 11.91914 | 34233 ft | 492 kts | 162° |
| 2026-05-01 14:53 | 42.90455 | 11.95109 | 34180 ft | 493 kts | 163° |
| 2026-05-01 14:53 | 42.83740 | 11.97265 | 34209 ft | 494 kts | 162° |
| 2026-05-01 14:54 | 42.77061 | 11.99406 | 34229 ft | 496 kts | 163° |
| 2026-05-01 14:54 | 42.70398 | 12.01538 | 34231 ft | 495 kts | 163° |
| 2026-05-01 14:55 | 42.63706 | 12.03674 | 34191 ft | 495 kts | 163° |
| 2026-05-01 14:55 | 42.56960 | 12.05824 | 34165 ft | 496 kts | 164° |
| 2026-05-01 14:56 | 42.50246 | 12.07958 | 34169 ft | 498 kts | 163° |
| 2026-05-01 14:56 | 42.43549 | 12.10081 | 34169 ft | 495 kts | 164° |
| 2026-05-01 14:57 | 42.36827 | 12.12207 | 34165 ft | 498 kts | 165° |
| 2026-05-01 14:57 | 42.26755 | 12.15388 | 34193 ft | 496 kts | 164° |
| 2026-05-01 14:58 | 42.20049 | 12.17503 | 34172 ft | 496 kts | 165° |
| 2026-05-01 14:58 | 42.13335 | 12.19610 | 34132 ft | 493 kts | 165° |
| 2026-05-01 14:59 | 42.06641 | 12.21707 | 34137 ft | 497 kts | 165° |
| 2026-05-01 14:59 | 41.99918 | 12.23808 | 34149 ft | 496 kts | 165° |
| 2026-05-01 15:00 | 41.89838 | 12.26956 | 34173 ft | 496 kts | 166° |
| 2026-05-01 15:01 | 41.83131 | 12.29047 | 34162 ft | 496 kts | 166° |
| 2026-05-01 15:01 | 41.76368 | 12.31148 | 34175 ft | 498 kts | 167° |
| 2026-05-01 15:02 | 41.69653 | 12.33224 | 34165 ft | 501 kts | 166° |
| 2026-05-01 15:02 | 41.62862 | 12.35318 | 34175 ft | 499 kts | 167° |
| 2026-05-01 15:03 | 41.56089 | 12.37403 | 34141 ft | 503 kts | 167° |
| 2026-05-01 15:03 | 41.49305 | 12.39494 | 34172 ft | 501 kts | 167° |
| 2026-05-01 15:04 | 41.42475 | 12.41597 | 34153 ft | 503 kts | 167° |
| 2026-05-01 15:04 | 41.35697 | 12.43673 | 34158 ft | 501 kts | 168° |
| 2026-05-01 15:05 | 41.28897 | 12.45750 | 34163 ft | 502 kts | 168° |
| 2026-05-01 15:05 | 41.22120 | 12.47815 | 34181 ft | 501 kts | 169° |
| 2026-05-01 15:06 | 41.15315 | 12.49887 | 34207 ft | 502 kts | 169° |
| 2026-05-01 15:06 | 41.08544 | 12.51947 | 34173 ft | 502 kts | 169° |
| 2026-05-01 15:07 | 41.01729 | 12.54005 | 34185 ft | 500 kts | 169° |
| 2026-05-01 15:07 | 40.94971 | 12.56045 | 34187 ft | 502 kts | 169° |
| 2026-05-01 15:08 | 40.88179 | 12.58102 | 34176 ft | 499 kts | 170° |
| 2026-05-01 15:08 | 40.81412 | 12.60141 | 34156 ft | 503 kts | 170° |
| 2026-05-01 15:09 | 40.74588 | 12.62189 | 34199 ft | 499 kts | 169° |
| 2026-05-01 15:09 | 40.67809 | 12.64218 | 34180 ft | 499 kts | 170° |
| 2026-05-01 15:10 | 40.61025 | 12.66245 | 34177 ft | 501 kts | 170° |
| 2026-05-01 15:10 | 40.50815 | 12.69288 | 34194 ft | 506 kts | 170° |
| 2026-05-01 15:11 | 40.40552 | 12.72344 | 34181 ft | 504 kts | 171° |
| 2026-05-01 15:12 | 40.33719 | 12.74374 | 34177 ft | 504 kts | 171° |
| 2026-05-01 15:12 | 40.23517 | 12.77397 | 34187 ft | 506 kts | 171° |
| 2026-05-01 15:14 | 40.06395 | 12.82444 | 34174 ft | 506 kts | 172° |
| 2026-05-01 15:14 | 39.96032 | 12.85494 | 34186 ft | 508 kts | 172° |
| 2026-05-01 15:15 | 39.82338 | 12.89511 | 34174 ft | 507 kts | 172° |
| 2026-05-01 15:16 | 39.68673 | 12.93479 | 34175 ft | 506 kts | 173° |
| 2026-05-01 15:18 | 39.51712 | 12.98395 | 34165 ft | 498 kts | 173° |
| 2026-05-01 15:19 | 39.38259 | 13.02276 | 34157 ft | 494 kts | 174° |
| 2026-05-01 15:19 | 39.28162 | 13.05177 | 34153 ft | 492 kts | 174° |
| 2026-05-01 15:20 | 39.18187 | 13.08044 | 34156 ft | 490 kts | 174° |
| 2026-05-01 15:21 | 39.11574 | 13.09940 | 34163 ft | 486 kts | 174° |
| 2026-05-01 15:21 | 39.05011 | 13.11814 | 34153 ft | 484 kts | 175° |
| 2026-05-01 15:22 | 38.95184 | 13.14613 | 34155 ft | 481 kts | 175° |
| 2026-05-01 15:22 | 38.88660 | 13.16466 | 34153 ft | 480 kts | 175° |
| 2026-05-01 15:23 | 38.82118 | 13.18317 | 34140 ft | 481 kts | 175° |
| 2026-05-01 15:23 | 38.75584 | 13.20163 | 34152 ft | 481 kts | 175° |
| 2026-05-01 15:24 | 38.69061 | 13.22010 | 34146 ft | 477 kts | 175° |
| 2026-05-01 15:24 | 38.62592 | 13.23834 | 34142 ft | 481 kts | 175° |
| 2026-05-01 15:25 | 38.56053 | 13.25676 | 34131 ft | 478 kts | 175° |
| 2026-05-01 15:25 | 38.49562 | 13.27508 | 34146 ft | 476 kts | 175° |
| 2026-05-01 15:26 | 38.43137 | 13.29305 | 34144 ft | 477 kts | 175° |
| 2026-05-01 15:26 | 38.36654 | 13.31117 | 34146 ft | 477 kts | 175° |
| 2026-05-01 15:27 | 38.30174 | 13.32926 | 34139 ft | 477 kts | 175° |
| 2026-05-01 15:28 | 38.20502 | 13.35630 | 34150 ft | 475 kts | 175° |
| 2026-05-01 15:28 | 38.14061 | 13.37425 | 34137 ft | 474 kts | 175° |
| 2026-05-01 15:29 | 38.04420 | 13.40099 | 34146 ft | 471 kts | 176° |
| 2026-05-01 15:30 | 37.92670 | 13.43344 | 34126 ft | 473 kts | 176° |
| 2026-05-01 15:31 | 37.72520 | 13.48903 | 34117 ft | 468 kts | 175° |
| 2026-05-01 15:32 | 37.59869 | 13.52371 | 34058 ft | 469 kts | 176° |
| 2026-05-01 15:33 | 37.50323 | 13.54982 | 32547 ft | 465 kts | 176° |
| 2026-05-01 15:34 | 37.40910 | 13.57553 | 30631 ft | 463 kts | 176° |